createdAt,value
2018-06-03T00:01:20.674Z,30.90
2018-06-03T00:03:46.766Z,34.13
2018-06-03T00:06:13.573Z,31.23
2018-06-03T00:08:40.387Z,28.03
2018-06-03T00:11:06.511Z,28.53
2018-06-03T00:13:32.573Z,31.37
2018-06-03T00:15:59.380Z,27.63
2018-06-03T00:18:25.475Z,25.30
2018-06-03T00:21:03.693Z,26.47
2018-06-03T00:23:29.768Z,25.23
2018-06-03T00:25:55.814Z,23.37
2018-06-03T00:28:21.910Z,23.93
2018-06-03T00:30:47.978Z,22.83
2018-06-03T00:33:14.069Z,28.13
2018-06-03T00:35:56.520Z,24.10
2018-06-03T00:38:22.562Z,22.50
2018-06-03T00:40:48.641Z,25.67
2018-06-03T00:43:15.487Z,27.33
2018-06-03T00:45:42.328Z,27.37
2018-06-03T00:48:09.156Z,27.17
2018-06-03T00:50:35.194Z,29.87
2018-06-03T00:53:02.049Z,26.17
2018-06-03T00:55:28.842Z,28.40
2018-06-03T00:57:54.913Z,30.33
2018-06-03T01:00:21.728Z,27.57
2018-06-03T01:03:29.939Z,28.87
2018-06-03T01:05:57.059Z,31.10
2018-06-03T01:08:24.554Z,29.90
2018-06-03T01:10:51.778Z,28.77
2018-06-03T01:13:18.971Z,33.93
2018-06-03T01:15:46.059Z,29.37
2018-06-03T01:18:13.268Z,31.63
2018-06-03T01:20:40.364Z,31.93
2018-06-03T01:23:07.402Z,33.33
2018-06-03T01:25:34.493Z,29.23
2018-06-03T01:28:01.642Z,30.33
2018-06-03T01:30:28.748Z,32.20
2018-06-03T01:32:55.963Z,31.70
2018-06-03T01:35:23.158Z,35.20
2018-06-03T01:37:50.246Z,36.17
2018-06-03T01:40:17.301Z,32.80
2018-06-03T01:42:44.459Z,34.80
2018-06-03T01:45:11.499Z,30.67
2018-06-03T01:47:38.548Z,30.13
2018-06-03T01:50:05.608Z,32.57
2018-06-03T01:52:32.635Z,32.27
2018-06-03T01:54:59.828Z,31.97
2018-06-03T01:57:26.983Z,32.13
2018-06-03T01:59:54.199Z,33.33
2018-06-03T02:02:21.374Z,38.63
2018-06-03T02:04:48.502Z,35.07
2018-06-03T02:07:15.507Z,34.67
2018-06-03T02:09:42.633Z,33.80
2018-06-03T02:12:09.730Z,32.53
2018-06-03T02:14:36.756Z,36.40
2018-06-03T02:17:04.016Z,38.47
2018-06-03T02:19:31.136Z,35.27
2018-06-03T02:21:58.298Z,36.37
2018-06-03T02:24:25.554Z,36.77
2018-06-03T02:26:52.924Z,35.63
2018-06-03T02:29:19.944Z,33.10
2018-06-03T02:31:47.036Z,32.90
2018-06-03T02:34:14.378Z,35.80
2018-06-03T02:36:41.684Z,33.03
2018-06-03T02:39:08.823Z,34.50
2018-06-03T02:41:35.876Z,33.07
2018-06-03T02:44:02.948Z,38.83
2018-06-03T02:46:30.025Z,33.60
2018-06-03T02:48:57.120Z,33.07
2018-06-03T02:51:25.226Z,35.13
2018-06-03T02:53:52.363Z,31.73
2018-06-03T02:56:19.432Z,36.40
2018-06-03T02:58:46.589Z,37.57
2018-06-03T03:01:13.612Z,31.63
2018-06-03T03:03:40.752Z,38.63
2018-06-03T03:06:07.844Z,34.13
2018-06-03T03:08:34.896Z,34.77
2018-06-03T03:11:02.032Z,41.30
2018-06-03T03:13:29.112Z,36.53
2018-06-03T03:15:56.217Z,42.57
2018-06-03T03:18:30.050Z,39.83
2018-06-03T03:20:57.367Z,39.73
2018-06-03T03:23:24.607Z,39.03
2018-06-03T03:25:51.745Z,40.00
2018-06-03T03:28:18.804Z,40.17
2018-06-03T03:30:45.848Z,36.27
2018-06-03T03:33:12.932Z,37.13
2018-06-03T03:35:39.986Z,38.97
2018-06-03T03:38:07.044Z,36.50
2018-06-03T03:40:34.085Z,35.20
2018-06-03T03:43:01.159Z,33.33
2018-06-03T03:45:28.296Z,35.83
2018-06-03T03:47:55.499Z,37.03
2018-06-03T03:50:22.952Z,33.57
2018-06-03T03:52:49.991Z,36.73
2018-06-03T03:55:17.051Z,34.23
2018-06-03T03:57:46.412Z,33.63
2018-06-03T04:00:13.886Z,39.60
2018-06-03T04:02:41.009Z,33.73
2018-06-03T04:05:08.084Z,37.67
2018-06-03T04:07:35.102Z,38.13
2018-06-03T04:10:02.160Z,39.40
2018-06-03T04:12:29.195Z,38.37
2018-06-03T04:14:56.420Z,40.43
2018-06-03T04:17:23.696Z,40.87
2018-06-03T04:19:50.777Z,40.83
2018-06-03T04:22:17.842Z,35.37
2018-06-03T04:24:44.916Z,36.40
2018-06-03T04:27:12.049Z,37.40
2018-06-03T04:29:39.071Z,36.93
2018-06-03T04:32:06.083Z,41.30
2018-06-03T04:34:33.174Z,39.60
2018-06-03T04:37:00.263Z,40.47
2018-06-03T04:39:27.383Z,43.30
2018-06-03T04:41:54.559Z,40.80
2018-06-03T04:44:21.683Z,38.80
2018-06-03T04:46:48.723Z,46.20
2018-06-03T04:49:15.803Z,38.37
2018-06-03T04:51:42.865Z,40.50
2018-06-03T04:54:09.951Z,41.20
2018-06-03T04:56:37.012Z,44.20
2018-06-03T04:59:04.301Z,40.37
2018-06-03T05:01:31.395Z,42.87
2018-06-03T05:03:58.616Z,41.13
2018-06-03T05:06:25.845Z,44.20
2018-06-03T05:08:53.075Z,42.43
2018-06-03T05:11:20.287Z,42.87
2018-06-03T05:13:47.330Z,40.90
2018-06-03T05:16:14.476Z,43.97
2018-06-03T05:18:41.536Z,40.90
2018-06-03T05:21:08.632Z,40.57
2018-06-03T05:23:35.668Z,40.77
2018-06-03T05:26:02.731Z,38.73
2018-06-03T05:28:29.812Z,37.90
2018-06-03T05:30:56.997Z,36.97
2018-06-03T05:33:24.197Z,40.67
2018-06-03T05:35:51.317Z,39.93
2018-06-03T05:38:18.392Z,38.67
2018-06-03T05:40:45.471Z,36.37
2018-06-03T05:43:12.641Z,41.87
2018-06-03T05:45:39.680Z,44.57
2018-06-03T05:48:06.759Z,43.10
2018-06-03T05:50:33.799Z,38.17
2018-06-03T05:53:00.847Z,34.53
2018-06-03T05:55:28.029Z,37.97
2018-06-03T05:57:55.331Z,35.13
2018-06-03T06:00:22.444Z,37.07
2018-06-03T06:02:49.488Z,38.53
2018-06-03T06:05:16.547Z,38.80
2018-06-03T06:07:43.740Z,37.90
2018-06-03T06:10:10.823Z,38.40
2018-06-03T06:12:37.989Z,36.30
2018-06-03T06:15:05.051Z,39.70
2018-06-03T06:17:32.076Z,34.60
2018-06-03T06:19:59.215Z,36.17
2018-06-03T06:22:26.390Z,39.70
2018-06-03T06:24:53.638Z,34.23
2018-06-03T06:27:20.643Z,36.10
2018-06-03T06:29:47.755Z,35.23
2018-06-03T06:32:14.899Z,34.93
2018-06-03T06:34:42.036Z,40.30
2018-06-03T06:37:09.594Z,43.07
2018-06-03T06:39:36.665Z,38.90
2018-06-03T06:42:03.720Z,36.93
2018-06-03T06:44:30.813Z,35.57
2018-06-03T06:46:57.963Z,40.40
2018-06-03T06:49:25.150Z,34.33
2018-06-03T06:51:52.300Z,35.60
2018-06-03T06:54:19.312Z,34.47
2018-06-03T06:56:46.394Z,33.77
2018-06-03T06:59:13.553Z,32.57
2018-06-03T07:01:40.611Z,35.43
2018-06-03T07:04:07.685Z,35.33
2018-06-03T07:06:34.830Z,33.77
2018-06-03T07:09:01.816Z,35.30
2018-06-03T07:11:28.980Z,32.63
2018-06-03T07:13:56.146Z,31.33
2018-06-03T07:16:24.439Z,35.23
2018-06-03T07:18:51.554Z,35.50
2018-06-03T07:21:18.713Z,32.60
2018-06-03T07:23:45.781Z,33.70
2018-06-03T07:26:12.906Z,31.20
2018-06-03T07:28:40.060Z,31.50
2018-06-03T07:31:07.112Z,32.07
2018-06-03T07:33:34.184Z,31.30
2018-06-03T07:36:01.232Z,27.23
2018-06-03T07:38:28.355Z,33.50
2018-06-03T07:40:55.567Z,29.40
2018-06-03T07:43:22.717Z,34.90
2018-06-03T07:45:49.796Z,32.03
2018-06-03T07:48:16.920Z,32.43
2018-06-03T07:50:43.998Z,32.23
2018-06-03T07:53:11.084Z,27.53
2018-06-03T07:55:38.164Z,31.90
2018-06-03T07:58:05.311Z,26.40
2018-06-03T08:00:32.594Z,29.53
2018-06-03T08:05:33.481Z,25.27
2018-06-03T08:08:00.647Z,26.03
2018-06-03T08:10:27.848Z,27.17
2018-06-03T08:12:55.011Z,26.80
2018-06-03T08:15:22.232Z,25.30
2018-06-03T08:17:49.300Z,28.23
2018-06-03T08:20:16.511Z,27.67
2018-06-03T08:22:43.637Z,24.13
2018-06-03T08:25:10.657Z,25.47
2018-06-03T08:27:37.736Z,23.07
2018-06-03T08:30:04.841Z,25.83
2018-06-03T08:32:31.901Z,22.90
2018-06-03T08:34:59.155Z,22.73
2018-06-03T08:37:26.736Z,25.20
2018-06-03T08:39:53.901Z,22.23
2018-06-03T08:42:21.016Z,25.27
2018-06-03T08:44:48.068Z,24.40
2018-06-03T08:47:15.205Z,25.83
2018-06-03T08:49:42.232Z,25.93
2018-06-03T08:52:09.319Z,23.87
2018-06-03T08:54:39.228Z,21.03
2018-06-03T08:57:06.353Z,24.33
2018-06-03T08:59:34.121Z,25.87
2018-06-03T09:02:01.172Z,24.43
2018-06-03T09:04:28.312Z,23.17
2018-06-03T09:06:55.554Z,27.47
2018-06-03T09:09:22.739Z,25.67
2018-06-03T09:11:49.792Z,30.77
2018-06-03T09:14:16.852Z,29.20
2018-06-03T09:16:43.996Z,27.83
2018-06-03T09:19:11.158Z,28.97
2018-06-03T09:21:38.204Z,24.57
2018-06-03T09:24:05.287Z,28.73
2018-06-03T09:26:32.352Z,25.60
2018-06-03T09:29:00.428Z,27.33
2018-06-03T09:31:28.543Z,29.23
2018-06-03T09:33:55.740Z,25.47
2018-06-03T09:36:22.895Z,27.77
2018-06-03T09:38:49.948Z,24.70
2018-06-03T09:41:17.039Z,23.23
2018-06-03T09:43:44.117Z,21.60
2018-06-03T09:46:11.207Z,22.67
2018-06-03T09:48:38.348Z,22.67
2018-06-03T09:51:05.419Z,25.03
2018-06-03T09:53:32.463Z,23.77
2018-06-03T09:55:59.580Z,25.33
2018-06-03T09:58:26.715Z,22.83
2018-06-03T10:00:53.895Z,23.77
2018-06-03T10:03:21.059Z,24.97
2018-06-03T10:05:48.120Z,26.63
2018-06-03T10:08:15.197Z,25.37
2018-06-03T10:10:42.266Z,24.00
2018-06-03T10:13:09.330Z,25.27
2018-06-03T10:15:36.433Z,26.00
2018-06-03T10:18:03.488Z,23.30
2018-06-03T10:20:30.605Z,25.37
2018-06-03T10:22:57.829Z,24.73
2018-06-03T10:25:25.038Z,24.83
2018-06-03T10:27:52.217Z,26.50
2018-06-03T10:30:19.280Z,22.60
2018-06-03T10:32:47.173Z,21.33
2018-06-03T10:35:14.283Z,21.07
2018-06-03T10:37:41.333Z,24.40
2018-06-03T10:40:08.477Z,18.53
2018-06-03T10:42:35.517Z,19.73
2018-06-03T10:45:02.599Z,18.40
2018-06-03T10:47:29.832Z,18.77
2018-06-03T10:49:57.005Z,19.53
2018-06-03T10:52:24.157Z,17.50
2018-06-03T10:54:51.199Z,16.23
2018-06-03T10:57:20.780Z,20.50
2018-06-03T10:59:47.936Z,15.63
2018-06-03T11:02:15.099Z,14.17
2018-06-03T11:04:42.244Z,14.60
2018-06-03T11:07:09.340Z,12.57
2018-06-03T11:09:36.437Z,12.70
2018-06-03T11:12:03.490Z,15.23
2018-06-03T11:14:30.587Z,19.20
2018-06-03T11:16:57.867Z,12.40
2018-06-03T11:19:25.009Z,12.47
2018-06-03T11:21:52.181Z,13.53
2018-06-03T11:24:19.250Z,11.33
2018-06-03T11:26:46.343Z,11.87
2018-06-03T11:29:13.483Z,13.00
2018-06-03T11:31:40.597Z,11.23
2018-06-03T11:34:07.642Z,9.90
2018-06-03T11:36:34.773Z,9.50
2018-06-03T11:39:01.824Z,9.40
2018-06-03T11:41:28.964Z,9.93
2018-06-03T11:43:56.089Z,11.80
2018-06-03T11:46:23.274Z,10.00
2018-06-03T11:48:50.323Z,7.87
2018-06-03T11:51:17.389Z,8.97
2018-06-03T11:53:44.515Z,10.93
2018-06-03T11:56:11.647Z,11.03
2018-06-03T11:58:54.004Z,11.43
2018-06-03T12:01:21.296Z,9.87
2018-06-03T12:03:48.705Z,10.53
2018-06-03T12:06:15.888Z,12.27
2018-06-03T12:08:43.010Z,12.27
2018-06-03T12:11:10.111Z,10.67
2018-06-03T12:13:37.188Z,10.27
2018-06-03T12:16:04.344Z,8.80
2018-06-03T12:18:31.393Z,8.23
2018-06-03T12:20:58.580Z,8.20
2018-06-03T12:23:25.692Z,8.53
2018-06-03T12:25:52.866Z,11.83
2018-06-03T12:28:19.969Z,11.40
2018-06-03T12:30:46.987Z,11.17
2018-06-03T12:33:14.075Z,11.30
2018-06-03T12:35:41.189Z,10.67
2018-06-03T12:38:08.272Z,11.50
2018-06-03T12:40:35.384Z,11.17
2018-06-03T12:43:02.491Z,11.33
2018-06-03T12:45:29.629Z,10.30
2018-06-03T12:47:56.824Z,11.23
2018-06-03T12:50:24.021Z,12.17
2018-06-03T12:52:51.108Z,10.03
2018-06-03T12:55:18.144Z,11.53
2018-06-03T12:57:45.249Z,9.80
2018-06-03T13:00:12.341Z,10.77
2018-06-03T13:02:39.409Z,10.93
2018-06-03T13:05:06.477Z,11.23
2018-06-03T13:07:33.555Z,10.93
2018-06-03T13:10:00.667Z,11.07
2018-06-03T13:12:27.875Z,9.93
2018-06-03T13:14:55.401Z,10.13
2018-06-03T13:17:22.572Z,11.33
2018-06-03T13:19:49.628Z,11.10
2018-06-03T13:22:16.754Z,9.77
2018-06-03T13:24:43.829Z,9.80
2018-06-03T13:27:11.057Z,10.00
2018-06-03T13:29:38.109Z,10.57
2018-06-03T13:32:05.200Z,9.30
2018-06-03T13:34:32.230Z,10.13
2018-06-03T13:36:59.438Z,9.33
2018-06-03T13:39:26.912Z,12.03
2018-06-03T13:41:54.836Z,9.33
2018-06-03T13:44:21.893Z,10.23
2018-06-03T13:46:48.963Z,10.57
2018-06-03T13:49:16.065Z,11.67
2018-06-03T13:51:43.164Z,9.27
2018-06-03T13:54:10.283Z,10.50
2018-06-03T13:56:37.353Z,9.77
2018-06-03T13:59:04.465Z,11.03
2018-06-03T14:01:31.724Z,10.87
2018-06-03T14:03:58.913Z,10.90
2018-06-03T14:06:26.231Z,10.70
2018-06-03T14:08:53.473Z,11.50
2018-06-03T14:11:20.542Z,10.10
2018-06-03T14:13:47.612Z,11.60
2018-06-03T14:16:14.727Z,11.60
2018-06-03T14:18:41.892Z,12.03
2018-06-03T14:21:09.000Z,11.00
2018-06-03T14:23:36.063Z,11.07
2018-06-03T14:26:03.231Z,11.40
2018-06-03T14:28:30.416Z,11.47
2018-06-03T14:30:57.922Z,10.87
2018-06-03T14:33:25.538Z,10.07
2018-06-03T14:35:53.016Z,10.07
2018-06-03T14:38:20.068Z,11.47
2018-06-03T14:40:47.285Z,10.00
2018-06-03T14:43:14.460Z,10.63
2018-06-03T14:45:41.512Z,10.73
2018-06-03T14:48:08.547Z,9.93
2018-06-03T14:50:35.681Z,10.10
2018-06-03T14:53:02.724Z,11.87
2018-06-03T14:55:29.875Z,10.03
2018-06-03T14:57:57.086Z,10.50
2018-06-03T15:00:24.361Z,11.43
2018-06-03T15:02:51.485Z,9.93
2018-06-03T15:05:18.565Z,9.97
2018-06-03T15:07:45.637Z,9.80
2018-06-03T15:10:12.692Z,9.30
2018-06-03T15:12:39.759Z,7.87
2018-06-03T15:15:06.805Z,8.63
2018-06-03T15:17:33.885Z,8.87
2018-06-03T15:20:01.048Z,10.40
2018-06-03T15:22:28.251Z,9.63
2018-06-03T15:24:55.464Z,7.80
2018-06-03T15:27:22.685Z,8.43
2018-06-03T15:29:49.795Z,9.20
2018-06-03T15:32:17.868Z,8.47
2018-06-03T15:34:45.065Z,8.90
2018-06-03T15:37:12.227Z,9.47
2018-06-03T15:39:39.408Z,10.30
2018-06-03T15:42:06.669Z,8.73
2018-06-03T15:44:33.827Z,9.00
2018-06-03T15:47:01.087Z,8.13
2018-06-03T15:49:28.327Z,8.47
2018-06-03T15:51:56.332Z,9.20
2018-06-03T15:54:23.566Z,9.77
2018-06-03T15:56:50.639Z,11.67
2018-06-03T15:59:17.719Z,9.87
2018-06-03T16:01:44.798Z,9.80
2018-06-03T16:04:11.854Z,8.90
2018-06-03T16:06:38.904Z,10.50
2018-06-03T16:09:06.612Z,10.00
2018-06-03T16:11:33.760Z,9.70
2018-06-03T16:14:00.943Z,10.40
2018-06-03T16:16:28.158Z,10.27
2018-06-03T16:18:55.621Z,10.47
2018-06-03T16:21:22.746Z,12.73
2018-06-03T16:23:49.940Z,10.37
2018-06-03T16:26:17.152Z,11.27
2018-06-03T16:28:44.191Z,9.83
2018-06-03T16:31:11.257Z,9.80
2018-06-03T16:33:38.319Z,10.10
2018-06-03T16:36:05.414Z,9.37
2018-06-03T16:38:32.514Z,11.07
2018-06-03T16:40:59.560Z,9.70
2018-06-03T16:43:26.819Z,10.20
2018-06-03T16:45:54.237Z,10.03
2018-06-03T16:48:22.186Z,9.27
2018-06-03T16:50:49.233Z,9.80
2018-06-03T16:53:16.384Z,10.37
2018-06-03T16:55:43.444Z,12.00
2018-06-03T16:58:10.551Z,11.73
2018-06-03T17:00:37.672Z,10.47
2018-06-03T17:03:04.770Z,11.30
2018-06-03T17:05:32.012Z,11.00
2018-06-03T17:07:59.189Z,11.80
2018-06-03T17:10:26.550Z,10.77
2018-06-03T17:12:53.819Z,12.20
2018-06-03T17:15:20.884Z,11.20
2018-06-03T17:17:48.245Z,11.73
2018-06-03T17:20:16.658Z,10.63
2018-06-03T17:22:45.128Z,10.53
2018-06-03T17:25:12.412Z,10.87
2018-06-03T17:27:39.483Z,10.07
2018-06-03T17:30:06.506Z,11.07
2018-06-03T17:32:33.611Z,10.47
2018-06-03T17:35:00.799Z,10.67
2018-06-03T17:37:28.618Z,10.40
2018-06-03T17:39:55.825Z,10.00
2018-06-03T17:42:24.021Z,10.13
2018-06-03T17:44:51.095Z,10.43
2018-06-03T17:47:18.235Z,9.60
2018-06-03T17:49:45.324Z,11.07
2018-06-03T17:52:12.363Z,10.90
2018-06-03T17:54:39.439Z,10.67
2018-06-03T17:57:06.515Z,10.53
2018-06-03T17:59:33.597Z,12.47
2018-06-03T18:02:00.825Z,11.53
2018-06-03T18:04:28.195Z,9.63
2018-06-03T18:06:55.489Z,11.20
2018-06-03T18:09:23.095Z,14.07
2018-06-03T18:11:50.392Z,11.37
2018-06-03T18:14:17.504Z,9.90
2018-06-03T18:16:44.704Z,11.57
2018-06-03T18:19:11.768Z,10.20
2018-06-03T18:21:38.864Z,16.37
2018-06-03T18:24:05.911Z,13.87
2018-06-03T18:26:33.001Z,10.87
2018-06-03T18:29:00.089Z,11.30
2018-06-03T18:31:27.278Z,10.30
2018-06-03T18:33:54.513Z,10.93
2018-06-03T18:36:21.595Z,40.07
2018-06-03T18:38:48.660Z,10.77
2018-06-03T18:41:16.244Z,13.40
2018-06-03T18:43:43.985Z,11.30
2018-06-03T18:46:11.025Z,10.87
2018-06-03T18:48:38.087Z,10.87
2018-06-03T18:51:05.392Z,10.53
2018-06-03T18:53:32.499Z,9.97
2018-06-03T18:55:59.720Z,12.50
2018-06-03T18:58:27.153Z,11.53
2018-06-03T19:00:54.525Z,13.33
2018-06-03T19:03:21.699Z,12.70
2018-06-03T19:05:48.764Z,12.67
2018-06-03T19:08:15.896Z,12.70
2018-06-03T19:10:42.936Z,11.43
2018-06-03T19:13:11.031Z,13.07
2018-06-03T19:15:38.113Z,10.63
2018-06-03T19:18:05.201Z,11.87
2018-06-03T19:20:32.253Z,11.40
2018-06-03T19:22:59.432Z,10.83
2018-06-03T19:25:26.639Z,12.00
2018-06-03T19:27:53.912Z,11.60
2018-06-03T19:30:20.992Z,12.23
2018-06-03T19:32:48.069Z,13.47
2018-06-03T19:35:15.186Z,12.27
2018-06-03T19:37:42.314Z,12.33
2018-06-03T19:40:09.384Z,13.10
2018-06-03T19:42:36.431Z,12.67
2018-06-03T19:45:03.628Z,13.17
2018-06-03T19:47:30.771Z,11.63
2018-06-03T19:49:57.921Z,12.30
2018-06-03T19:52:25.220Z,11.57
2018-06-03T19:54:52.267Z,12.27
2018-06-03T19:57:19.315Z,13.00
2018-06-03T19:59:46.428Z,12.40
2018-06-03T20:02:13.565Z,12.80
2018-06-03T20:04:40.655Z,11.53
2018-06-03T20:07:07.715Z,12.17
2018-06-03T20:09:34.793Z,12.70
2018-06-03T20:12:01.841Z,12.80
2018-06-03T20:14:29.173Z,14.13
2018-06-03T20:16:56.441Z,13.10
2018-06-03T20:19:23.743Z,12.73
2018-06-03T20:21:50.948Z,14.00
2018-06-03T20:24:18.055Z,13.70
2018-06-03T20:26:45.273Z,12.90
2018-06-03T20:29:13.084Z,13.97
2018-06-03T20:31:40.251Z,13.53
2018-06-03T20:34:07.415Z,12.97
2018-06-03T20:36:34.600Z,12.57
2018-06-03T20:39:01.735Z,12.50
2018-06-03T20:41:28.991Z,14.37
2018-06-03T20:43:56.246Z,11.67
2018-06-03T20:46:23.505Z,12.70
2018-06-03T20:48:50.620Z,11.77
2018-06-03T20:51:17.775Z,13.70
2018-06-03T20:53:44.991Z,11.90
2018-06-03T20:56:12.107Z,12.80
2018-06-03T20:58:39.259Z,13.00
2018-06-03T21:01:06.414Z,13.40
2018-06-03T21:03:33.534Z,12.77
2018-06-03T21:06:00.706Z,13.37
2018-06-03T21:08:27.858Z,13.73
2018-06-03T21:10:55.063Z,12.63
2018-06-03T21:13:22.216Z,11.90
2018-06-03T21:15:50.163Z,11.47
2018-06-03T21:18:17.371Z,12.63
2018-06-03T21:20:44.591Z,13.10
2018-06-03T21:23:11.742Z,14.47
2018-06-03T21:25:38.921Z,13.13
2018-06-03T21:28:06.035Z,13.33
2018-06-03T21:30:33.202Z,13.00
2018-06-03T21:33:00.403Z,11.90
2018-06-03T21:35:27.570Z,10.93
2018-06-03T21:37:54.783Z,12.87
2018-06-03T21:40:21.941Z,13.90
2018-06-03T21:42:49.063Z,14.50
2018-06-03T21:45:16.223Z,15.50
2018-06-03T21:47:43.472Z,13.83
2018-06-03T21:50:10.591Z,12.93
2018-06-03T21:52:37.718Z,14.47
2018-06-03T21:55:04.904Z,12.20
2018-06-03T21:57:32.072Z,13.90
2018-06-03T21:59:59.242Z,11.47
2018-06-03T22:02:26.426Z,12.50
2018-06-03T22:04:53.688Z,12.83
2018-06-03T22:07:20.836Z,12.77
2018-06-03T22:09:48.023Z,11.93
2018-06-03T22:12:15.136Z,13.97
2018-06-03T22:14:42.306Z,13.93
2018-06-03T22:17:09.500Z,13.17
2018-06-03T22:19:36.614Z,14.83
2018-06-03T22:22:03.805Z,15.47
2018-06-03T22:24:30.969Z,14.70
2018-06-03T22:26:58.201Z,14.63
2018-06-03T22:29:25.399Z,14.67
2018-06-03T22:31:52.552Z,14.90
2018-06-03T22:34:19.681Z,15.07
2018-06-03T22:36:46.843Z,15.03
2018-06-03T22:39:14.122Z,14.20
2018-06-03T22:41:41.326Z,14.30
2018-06-03T22:44:08.448Z,14.30
2018-06-03T22:46:35.585Z,14.57
2018-06-03T22:49:02.742Z,14.13
2018-06-03T22:51:29.942Z,14.87
2018-06-03T22:53:57.245Z,16.00
2018-06-03T22:56:24.733Z,15.83
2018-06-03T22:58:51.933Z,16.03
2018-06-03T23:01:19.050Z,14.60
2018-06-03T23:03:46.476Z,14.13
2018-06-03T23:06:13.623Z,13.77
2018-06-03T23:08:40.747Z,16.07
2018-06-03T23:11:07.901Z,15.00
2018-06-03T23:13:35.684Z,16.23
2018-06-03T23:16:02.929Z,14.33
2018-06-03T23:18:30.160Z,16.00
2018-06-03T23:20:57.453Z,16.23
2018-06-03T23:23:24.659Z,16.73
2018-06-03T23:25:51.782Z,15.00
2018-06-03T23:28:18.946Z,15.00
2018-06-03T23:30:46.073Z,15.07
2018-06-03T23:33:13.291Z,16.93
2018-06-03T23:35:40.423Z,15.33
2018-06-03T23:38:07.580Z,15.00
2018-06-03T23:40:34.704Z,14.63
2018-06-03T23:43:01.865Z,15.63
2018-06-03T23:45:29.011Z,16.70
2018-06-03T23:47:56.277Z,16.67
2018-06-03T23:50:24.867Z,17.13
2018-06-03T23:52:52.002Z,16.57
2018-06-03T23:55:19.160Z,15.47
2018-06-03T23:57:46.419Z,15.40
